Haypoint, Minnesota
Current Conditions -  °F | °C
As of 10:35 PM on Sunday 25 Jan 2015 (Local Time) from KGPZ Reporting Station
Overcast Overcast  
Wind Chill:   Ceiling: 2100
Heat Index: 19°   Visibility: 10mi
Dew Point: 14°   Wind: 10mph
Humidity: 80%   Direction: 170°S
Pressure: 29.85"   Gusts: NA
Location:  47.0392°N, 93.6273°W
Report Text: KGPZ 260435Z AUTO 17009KT 10SM BKN021 OVC065 M07/M10 A2985 RMK AO1
Loading
Personal Weather Stations






























Interactive Weather Map New forecast layout! Learn more

10-Day Weather Forecast

Advertisements
Track Severe Weather on mobile